NCAR-RAP Real-Time Weather Data

Output produced by METARs form (17 December 2018  14:24 UTC)
found at http://weather.rap.ucar.edu/surface/
 
RJBB 171400Z AUTO 28021KT 9999 FEW036 SCT070 10/02 Q1014 NOSIG
RJBB 171330Z 29019KT 9999 FEW030 10/02 Q1014 NOSIG
RJBB 171300Z 29017KT 9999 FEW030 BKN080 10/01 Q1014 NOSIG
RJBB 171230Z 28016KT 9999 FEW030 10/02 Q1014 NOSIG
RJBB 171200Z 29017KT 9999 FEW025 BKN080 10/03 Q1014 NOSIG
RJBB 171130Z 30016KT 9999 FEW025 SCT040 10/01 Q1014 NOSIG
RJBB 171100Z 31018KT 9999 FEW025 11/03 Q1013 NOSIG
RJBB 171030Z 30018KT 9999 FEW025 SCT040 11/03 Q1013 NOSIG
RJBB 171000Z 29020KT 9999 -SHRA FEW025 SCT040 11/02 Q1013 NOSIG
RJBB 170930Z 29019KT 9999 FEW025 SCT080 11/02 Q1013 TEMPO 29023G33KT
RJBB 170900Z 29022KT 9999 FEW025 SCT080 11/02 Q1012 TEMPO 29025G36KT
RJBB 170830Z 30021KT 9999 FEW025 SCT035 BKN080 11/02 Q1012 TEMPO 30025G36KT
RJBB 170828Z 29019G29KT 9999 FEW025 SCT035 BKN080 11/03 Q1012 RMK 1CU025 3CU035 5AC080 A2990
RJBB 170800Z 30017KT 9999 FEW025 BKN070 11/04 Q1012 NOSIG
RJBB 170730Z 29015KT 9999 FEW020 SCT035 11/04 Q1011 NOSIG
RJBB 170700Z 30017KT 9999 FEW015 SCT070 12/05 Q1011 NOSIG
RJBB 170630Z 30019KT 9999 FEW020 BKN070 12/06 Q1010 NOSIG
RJBB 170600Z 30015KT 280V340 9999 -SHRA FEW015 BKN040 11/07 Q1010 NOSIG
RJBB 170530Z 28014KT 9999 VCSH FEW015 SCT025 BKN045 12/05 Q1010 NOSIG
RJBB 170500Z 29014KT 9999 FEW020 BKN050 12/04 Q1010 NOSIG
RJBB 170430Z 30015KT 9999 FEW020 14/05 Q1010 NOSIG
RJBB 170400Z 27014KT 9999 FEW020 13/05 Q1010 NOSIG
RJBB 170330Z 27012KT 9999 FEW015 13/05 Q1010 NOSIG
RJBB 170300Z 31013KT 9999 FEW015 13/06 Q1011 NOSIG
RJBB 170230Z 30014KT 9999 FEW015 13/06 Q1011 NOSIG
RJBB 170200Z 29017KT 9999 FEW015 12/06 Q1012 NOSIG
RJBB 170130Z 30018KT 9999 FEW010 13/08 Q1012 NOSIG
RJBB 170100Z 30019KT 9999 FEW008 SCT040 12/08 Q1012 NOSIG
RJBB 170030Z 30016KT 9999 FEW008 SCT020 BKN040 11/08 Q1012 NOSIG
RJBB 170000Z 29013KT 9999 FEW010 SCT020 BKN040 11/08 Q1012 NOSIG
RJBB 162330Z 30014KT 9999 FEW005 SCT015 BKN040 11/09 Q1012 NOSIG
RJBB 162300Z 31014KT 9999 FEW005 SCT015 BKN025 11/09 Q1012 NOSIG
RJBB 162230Z 32013KT 9999 FEW005 SCT010 BKN050 11/09 Q1011 BECMG 30016KT
RJBB 162200Z 35010KT 9000 FEW005 BKN010 BKN050 10/09 Q1011 BECMG FEW005 SCT010 BKN050
RJBB 162130Z 36008KT 9999 FEW005 BKN040 10/10 Q1011 NOSIG
RJBB 162100Z 01006KT 9999 FEW005 SCT050 BKN120 10/10 Q1011 NOSIG
RJBB 162030Z AUTO 02008KT 9000 FEW005 SCT021 BKN040 10/10 Q1011 NOSIG
RJBB 162000Z AUTO 06005KT 9999 FEW018 SCT019 BKN024 11/09 Q1011 NOSIG
RJBB 161930Z AUTO 08004KT 9999 FEW020 SCT022 BKN026 11/09 Q1011 TEMPO 4000 BR
RJBB 161900Z AUTO 08003KT 9999 FEW021 BKN023 BKN027 11/09 Q1011 TEMPO 4000 BR
RJBB 161830Z AUTO 10005KT 9999 -RA BKN021 OVC070 11/09 Q1011 TEMPO 4000 -SHRA BR
RJBB 161800Z AUTO 10008KT 9000 -RA FEW044 SCT060 OVC070 11/10 Q1012 TEMPO 4000 -SHRA BR
RJBB 161750Z AUTO 10009KT 4900 RA BR FEW044 SCT050 BKN060 10/10 Q1012 RMK A2988 RI003
RJBB 161745Z AUTO 10010KT 2300 RA BR FEW044 SCT050 BKN060 11/10 Q1012 RMK A2989 RI003
RJBB 161732Z AUTO 11009KT 2800 RA BR FEW044 BKN050 OVC060 //////TCU 10/09 Q1012 RMK A2990 RI004 TCU 35KM NE MOV UNKNOWN
RJBB 161730Z AUTO 10010KT 3300 RA BR FEW049 BKN050 OVC060 10/09 Q1012 TEMPO FEW002 BKN008 BKN020
RJBB 161721Z AUTO 10009KT 3800 RA BR FEW048 BKN050 OVC060 10/09 Q1012 RMK A2991 RI007
RJBB 161713Z AUTO 09010KT 2200 RA BR FEW009 BKN050 OVC060 10/09 Q1013 RMK A2991 RI006
RJBB 161709Z AUTO 09009KT 2600 RA BR FEW007 BKN050 OVC060 10/09 Q1013 RMK A2992 RI004
RJBB 161707Z AUTO 09009KT 2800 -RA BR FEW007 BKN050 OVC060 10/09 Q1013 RMK A2992
RJBB 161700Z AUTO 08009KT 3800 -RA BR FEW007 BKN050 OVC060 10/09 Q1013 NOSIG
RJBB 161651Z AUTO 08010KT 3200 RA BR FEW007 SCT019 OVC050 10/09 Q1013 RMK A2993 RI003
RJBB 161648Z AUTO 08010KT 2200 -RA BR FEW007 SCT011 OVC050 10/09 Q1013 RMK A2993
RJBB 161646Z AUTO 08010KT 2700 -RA BR FEW007 SCT011 BKN048 10/09 Q1013 RMK A2993
RJBB 161641Z AUTO 08009KT 3500 -RA BR FEW003 BKN007 BKN011 10/09 Q1013 RMK A2993
RJBB 161630Z AUTO 08007KT 3600 -RA BR FEW005 BKN011 BKN019 09/09 Q1014 NOSIG
RJBB 161616Z AUTO 08008KT 4300 -RA BR FEW005 SCT007 OVC011 09/08 Q1014 RMK A2994
RJBB 161608Z AUTO 08007KT 4200 -RA BR BKN004 OVC007 09/09 Q1014 RMK A2995
RJBB 161605Z AUTO 08008KT 3800 -RA BR SCT004 OVC007 09/09 Q1014 RMK A2995
RJBB 161600Z AUTO 08008KT 4400 -RA BR OVC003 09/09 Q1014 NOSIG
RJBB 161548Z AUTO 08009KT 2400 -RA BR OVC003 09/09 Q1014 RMK A2995
RJBB 161546Z AUTO 08008KT 3300 -RA BR OVC003 09/09 Q1014 RMK A2995
RJBB 161538Z AUTO 08008KT 2800 -RA BR OVC003 09/09 Q1014 RMK A2995
RJBB 161535Z AUTO 08008KT 3500 -RA BR OVC003 09/09 Q1014 RMK A2995
RJBB 161530Z AUTO 07009KT 3200 -RA BR BKN004 OVC035 09/09 Q1014 TEMPO SHRA BR
RJBB 161529Z AUTO 07009KT 3100 -RA BR BKN004 OVC035 09/09 Q1014 RMK A2995
RJBB 161524Z AUTO 06010KT 3200 -RA BR BKN004 OVC036 09/09 Q1014 RMK A2995
RJBB 161520Z AUTO 06009KT 4000 -RA BR BKN005 BKN036 OVC050 09/09 Q1014 RMK A2995
RJBB 161505Z AUTO 07009KT 3300 R06R/P2000N R06L/P2000N RA BR FEW005 SCT024 BKN030 10/10 Q1014 RMK A2996 RI005
RJBB 161500Z AUTO 06010KT 2300 R06R/P2000N R06L/P2000N RA BR FEW006 SCT021 BKN028 10/09 Q1014 NOSIG
RJBB 161443Z AUTO 06012KT 1400 R06R/P2000N R06L/P2000N RA BR FEW003 SCT013 BKN022 09/09 Q1014 RMK A2997 RI004
RJBB 161438Z AUTO 05013KT 2500 RA BR FEW003 SCT009 BKN013 09/09 Q1014 RMK A2997 RI004
RJBB 161430Z AUTO 03014KT 2200 RA BR BKN003 BKN007 OVC009 09/09 Q1014 NOSIG
RJBB 161419Z AUTO 03015KT 1800 -RA BR BKN005 OVC007 09/09 Q1014 RMK A2997
RJBB 161413Z AUTO 03015KT 2500 -RA BR BKN004 OVC023 09/09 Q1014 RMK A2996
RJBB 161406Z AUTO 03015KT 1800 -RA BR BKN004 BKN008 BKN013 09/09 Q1014 RMK A2997
RJBB 161404Z AUTO 03015KT 1900 -RA BR BKN005 BKN008 OVC013 09/09 Q1014 RMK A2997
RJBB 161402Z AUTO 03015KT 1700 -RA BR FEW005 SCT007 BKN008 09/09 Q1014 RMK A2997
RJBB 161400Z AUTO 03015KT 2900 -RA BR SCT005 BKN007 BKN013 09/09 Q1014 TEMPO SHRA BR
RJBB 161330Z 04012KT 4500 SHRA BR FEW003 SCT010 BKN030 09/09 Q1014 TEMPO 3000 SHRA BR
RJBB 161300Z 05010KT 6000 RA BR FEW005 BKN025 BKN060 09/08 Q1015 TEMPO 4000 SHRA BR
RJBB 161230Z 06009KT 7000 RA BR FEW010 SCT025 BKN060 09/08 Q1015 TEMPO 4000 SHRA BR
RJBB 161200Z 07007KT 7000 RA BR FEW010 SCT025 BKN050 09/08 Q1016 TEMPO 4000 SHRA BR
RJBB 161130Z 08007KT 6000 RA BR FEW010 SCT025 BKN050 10/08 Q1016 TEMPO 4000 SHRA BR
RJBB 161115Z 08007KT 7000 -RA FEW010 SCT025 BKN050 10/08 Q1017 RMK 1ST010 3CU025 5SC050 A3003
RJBB 161100Z 08007KT 6000 RA BR FEW010 SCT025 BKN050 10/08 Q1017 TEMPO 4000 SHRA BR
RJBB 161030Z 07004KT 6000 RA BR FEW020 SCT030 BKN050 09/07 Q1017 TEMPO 4000 SHRA BR
RJBB 161000Z 08004KT 6000 RA BR FEW020 SCT035 BKN050 09/07 Q1018 TEMPO 4000 SHRA BR
RJBB 160944Z 07004KT 6000 RA BR FEW020 SCT035 BKN050 09/07 Q1018 RMK 1CU020 3CU035 5SC050 A3007
RJBB 160930Z 07006KT 8000 -RA FEW020 BKN050 BKN070 10/07 Q1018 TEMPO 4000 SHRA BR
RJBB 160900Z 07007KT 8000 -RA FEW020 BKN050 BKN070 10/06 Q1018 TEMPO 4000 SHRA BR
RJBB 160830Z 06007KT 030V100 6000 RA BR FEW020 SCT035 BKN050 10/07 Q1018 TEMPO 4000 SHRA BR
RJBB 160800Z 05010KT 9000 -RA FEW025 SCT035 BKN050 11/06 Q1019 NOSIG
RJBB 160730Z 04011KT 9999 -RA FEW025 SCT050 BKN070 11/07 Q1018 NOSIG
RJBB 160700Z 05010KT 9999 -RA FEW020 SCT050 BKN070 11/06 Q1019 NOSIG
RJBB 160630Z 05007KT 9999 VCSH FEW025 SCT070 BKN090 12/05 Q1019 NOSIG
RJBB 160600Z 04006KT 9999 VCSH FEW025 BKN070 12/05 Q1019 NOSIG
RJBB 160530Z 04004KT 350V060 9999 FEW025 SCT070 BKN100 11/05 Q1020 NOSIG
RJBB 160500Z 06005KT 9999 FEW025 SCT070 BKN100 11/04 Q1020 NOSIG
RJBB 160430Z 05009KT 9999 FEW025 SCT100 BKN120 10/03 Q1020 NOSIG
RJBB 160400Z 05008KT 9999 FEW025 BKN130 10/03 Q1021 NOSIG
RJBB 160330Z 06006KT 030V100 9999 FEW020 SCT180 BKN/// 10/04 Q1022 NOSIG
RJBB 160300Z 04007KT 9999 FEW025 BKN140 10/03 Q1022 NOSIG
RJBB 160230Z 04007KT 9999 FEW025 BKN140 09/03 Q1023 NOSIG
RJBB 160200Z 03005KT 9999 FEW025 SCT150 BKN/// 09/03 Q1024 NOSIG
RJBB 160130Z 04005KT 9999 FEW020 SCT180 09/02 Q1024 NOSIG
RJBB 160100Z 04007KT 9999 FEW020 SCT/// 08/01 Q1025 NOSIG
RJBB 160030Z 05006KT 9999 FEW020 BKN/// 07/01 Q1025 NOSIG
RJBB 160000Z 07006KT 9999 FEW020 SCT180 BKN/// 06/01 Q1025 NOSIG
RJBB 152330Z 09005KT 9999 FEW020 BKN/// 06/01 Q1025 NOSIG
RJBB 151330Z 08009KT 9999 FEW050 SCT180 BKN/// 08/01 Q1029 NOSIG
RJBB 151300Z 09008KT 9999 FEW050 BKN/// 08/01 Q1029 NOSIG
RJBB 151230Z 09008KT 9999 FEW050 BKN/// 08/01 Q1029 NOSIG
RJBB 151200Z 10008KT 9999 FEW035 BKN/// 08/02 Q1029 NOSIG
RJBB 151130Z 06008KT 9999 FEW035 SCT/// 08/01 Q1029 NOSIG
RJBB 151100Z 04006KT 360V070 9999 FEW035 07/M02 Q1029 NOSIG
RJBB 151030Z 01010KT 9999 FEW035 08/M03 Q1029 NOSIG
RJBB 151000Z 01011KT 9999 FEW025 08/M03 Q1029 NOSIG
RJBB 150930Z 01013KT 9999 FEW025 08/M02 Q1029 NOSIG
RJBB 150900Z 04008KT 9999 FEW025 SCT050 08/M02 Q1029 NOSIG
RJBB 150830Z 36012KT 9999 FEW025 BKN050 08/M02 Q1029 NOSIG
RJBB 150800Z 35008KT 9999 FEW025 BKN050 08/M02 Q1029 NOSIG
RJBB 150730Z 36006KT 310V030 9999 FEW025 BKN050 08/M02 Q1029 NOSIG
RJBB 150700Z 01006KT 320V050 9999 FEW030 BKN050 08/M03 Q1028 NOSIG
RJBB 150630Z 05003KT 360V080 9999 FEW030 BKN045 08/M02 Q1029 NOSIG
RJBB 150600Z 02004KT 340V090 9999 FEW030 BKN045 08/M03 Q1029 NOSIG
RJBB 150530Z 04004KT 360V090 9999 FEW030 BKN045 08/M02 Q1029 NOSIG
RJBB 150500Z 04006KT 010V080 9999 FEW030 BKN045 08/M01 Q1029 NOSIG
RJBB 150430Z 01012KT 9999 FEW025 BKN045 09/M02 Q1029 NOSIG
RJBB 150400Z 02015KT 9999 FEW025 09/M01 Q1029 NOSIG
RJBB 150330Z 01012KT 9999 FEW025 09/M01 Q1029 NOSIG
RJBB 150300Z 01016KT 9999 FEW025 SCT060 09/M01 Q1030 NOSIG
RJBB 150230Z 01014KT 9999 FEW020 SCT060 08/M01 Q1030 NOSIG